createdAt,value
2022-09-09T00:03:08.312Z,79.00
2022-09-09T00:07:44.364Z,79.20
2022-09-09T00:11:57.343Z,78.80
2022-09-09T00:16:20.318Z,79.20
2022-09-09T00:21:03.977Z,79.30
2022-09-09T00:25:20.140Z,78.80
2022-09-09T00:29:56.509Z,79.60
2022-09-09T00:34:17.442Z,79.80
2022-09-09T00:38:42.458Z,79.60
2022-09-09T00:42:47.054Z,79.70
2022-09-09T00:47:17.781Z,79.60
2022-09-09T00:51:31.308Z,79.40
2022-09-09T00:56:12.423Z,79.90
2022-09-09T01:00:22.593Z,79.40
2022-09-09T01:04:35.124Z,80.00
2022-09-09T01:09:14.406Z,80.00
2022-09-09T01:13:37.439Z,79.60
2022-09-09T01:18:02.574Z,79.50
2022-09-09T01:22:42.604Z,80.00
2022-09-09T01:26:47.173Z,79.60
2022-09-09T01:31:01.514Z,79.80
2022-09-09T01:35:35.175Z,79.90
2022-09-09T01:39:42.944Z,79.50
2022-09-09T01:43:48.660Z,79.80
2022-09-09T01:47:54.218Z,79.70
2022-09-09T01:52:13.045Z,79.80
2022-09-09T01:56:34.433Z,79.60
2022-09-09T02:00:41.799Z,79.60
2022-09-09T02:04:49.196Z,79.70
2022-09-09T02:08:58.698Z,79.70
2022-09-09T02:13:17.200Z,79.70
2022-09-09T02:17:28.691Z,79.60
2022-09-09T02:21:46.093Z,80.00
2022-09-09T02:25:52.936Z,80.00
2022-09-09T02:30:03.154Z,80.10
2022-09-09T02:34:21.466Z,80.20
2022-09-09T02:38:30.069Z,80.30
2022-09-09T02:42:44.225Z,80.40
2022-09-09T02:47:04.541Z,80.50
2022-09-09T02:51:14.716Z,80.50
2022-09-09T02:55:30.393Z,80.50
2022-09-09T02:59:35.630Z,80.40
2022-09-09T03:03:39.136Z,80.20
2022-09-09T03:07:46.271Z,80.30
2022-09-09T03:11:50.771Z,80.40
2022-09-09T03:15:54.690Z,80.40
2022-09-09T03:19:59.742Z,80.30
2022-09-09T03:24:04.395Z,80.30
2022-09-09T03:28:07.578Z,80.10
2022-09-09T03:32:11.711Z,80.20
2022-09-09T03:36:16.595Z,80.30
2022-09-09T03:40:20.532Z,80.60
2022-09-09T03:44:23.428Z,80.70
2022-09-09T03:48:28.997Z,80.70
2022-09-09T03:52:32.465Z,80.70
2022-09-09T03:56:36.353Z,80.70
2022-09-09T04:00:43.322Z,80.90
2022-09-09T04:04:46.543Z,80.90
2022-09-09T04:08:53.343Z,81.20
2022-09-09T04:12:56.731Z,81.40
2022-09-09T04:17:00.593Z,81.50
2022-09-09T04:21:04.635Z,81.50
2022-09-09T04:25:09.143Z,81.40
2022-09-09T04:29:12.169Z,81.30
2022-09-09T04:33:16.333Z,81.30
2022-09-09T04:37:19.199Z,81.40
2022-09-09T04:41:22.135Z,81.40
2022-09-09T04:45:28.273Z,81.40
2022-09-09T04:49:32.642Z,81.30
2022-09-09T04:53:35.756Z,81.50
2022-09-09T04:57:39.128Z,81.50
2022-09-09T05:01:42.182Z,81.60
2022-09-09T05:05:45.985Z,81.60
2022-09-09T05:09:50.416Z,81.60
2022-09-09T05:13:54.019Z,81.70
2022-09-09T05:18:01.591Z,81.70
2022-09-09T05:22:06.469Z,81.70
2022-09-09T05:26:19.669Z,81.50
2022-09-09T05:30:27.365Z,81.50
2022-09-09T05:34:31.085Z,81.60
2022-09-09T05:38:35.253Z,81.70
2022-09-09T05:42:38.269Z,81.70
2022-09-09T05:46:41.417Z,81.70
2022-09-09T05:50:45.527Z,81.80
2022-09-09T05:54:50.349Z,81.90
2022-09-09T05:58:57.468Z,81.70
2022-09-09T06:03:01.137Z,81.60
2022-09-09T06:07:04.035Z,81.60
2022-09-09T06:11:18.958Z,82.00
2022-09-09T06:15:22.253Z,82.10
2022-09-09T06:19:27.450Z,82.30
2022-09-09T06:23:33.272Z,82.50
2022-09-09T06:27:36.166Z,82.30
2022-09-09T06:31:39.381Z,82.20
2022-09-09T06:35:58.263Z,81.90
2022-09-09T06:40:01.765Z,81.80
2022-09-09T06:44:05.730Z,81.20
2022-09-09T06:48:16.133Z,81.00
2022-09-09T06:52:19.275Z,80.50
2022-09-09T06:56:28.897Z,80.10
2022-09-09T07:00:33.092Z,80.00
2022-09-09T07:04:36.354Z,79.60
2022-09-09T07:08:40.929Z,79.30
2022-09-09T07:12:44.114Z,78.90
2022-09-09T07:16:48.724Z,78.60
2022-09-09T07:20:57.965Z,78.10
2022-09-09T07:25:03.286Z,77.30
2022-09-09T07:29:06.630Z,77.50
2022-09-09T07:33:10.910Z,77.20
2022-09-09T07:37:14.556Z,76.60
2022-09-09T07:41:50.666Z,76.50
2022-09-09T07:46:02.461Z,76.40
2022-09-09T07:50:05.909Z,75.80
2022-09-09T07:54:12.163Z,75.80
2022-09-09T07:58:18.229Z,74.90
2022-09-09T08:02:21.009Z,74.40
2022-09-09T08:06:25.956Z,72.60
2022-09-09T08:10:28.729Z,72.40
2022-09-09T08:14:32.356Z,72.20
2022-09-09T08:18:35.751Z,70.30
2022-09-09T08:22:41.118Z,69.40
2022-09-09T08:26:48.312Z,68.90
2022-09-09T08:30:54.323Z,69.00
2022-09-09T08:35:01.194Z,67.40
2022-09-09T08:39:06.566Z,66.90
2022-09-09T08:43:09.487Z,68.30
2022-09-09T08:47:48.086Z,65.00
2022-09-09T08:51:51.943Z,65.20
2022-09-09T08:56:00.497Z,64.20
2022-09-09T09:00:13.390Z,62.20
2022-09-09T09:04:52.395Z,61.80
2022-09-09T09:09:17.547Z,61.50
2022-09-09T09:13:36.323Z,60.20
2022-09-09T09:17:41.429Z,58.60
2022-09-09T09:21:49.032Z,56.80
2022-09-09T09:25:58.612Z,55.30
2022-09-09T09:30:29.482Z,54.90
2022-09-09T09:34:38.384Z,56.00
2022-09-09T09:43:35.489Z,53.80
2022-09-09T09:47:42.552Z,54.10
2022-09-09T09:51:49.047Z,53.60
2022-09-09T09:56:04.988Z,55.10
2022-09-09T10:00:18.889Z,55.00
2022-09-09T10:04:30.170Z,55.00
2022-09-09T10:08:47.484Z,51.40
2022-09-09T10:13:10.423Z,50.30
2022-09-09T10:17:36.928Z,49.00
2022-09-09T10:21:48.778Z,50.90
2022-09-09T10:26:28.978Z,49.50
2022-09-09T10:30:50.352Z,48.60
2022-09-09T10:34:58.740Z,47.40
2022-09-09T10:39:42.224Z,46.00
2022-09-09T10:44:08.102Z,45.80
2022-09-09T10:48:16.475Z,45.00
2022-09-09T10:52:28.086Z,44.80
2022-09-09T10:56:31.841Z,45.20
2022-09-09T11:00:44.237Z,44.10
2022-09-09T11:04:52.142Z,44.00
2022-09-09T11:08:57.104Z,44.50
2022-09-09T11:13:05.078Z,44.40
2022-09-09T11:17:19.169Z,43.70
2022-09-09T11:21:31.218Z,44.50
2022-09-09T11:25:37.481Z,43.10
2022-09-09T11:29:58.684Z,42.80
2022-09-09T11:34:19.974Z,43.20
2022-09-09T11:38:48.073Z,42.90
2022-09-09T11:43:01.839Z,42.70
2022-09-09T11:47:05.070Z,43.40
2022-09-09T11:51:21.625Z,43.70
2022-09-09T11:55:34.076Z,43.80
2022-09-09T11:59:36.941Z,42.80
2022-09-09T12:03:45.504Z,41.80
2022-09-09T12:07:59.727Z,40.40
2022-09-09T12:12:24.554Z,40.50
2022-09-09T12:16:39.449Z,41.80
2022-09-09T12:21:15.195Z,41.00
2022-09-09T12:25:32.762Z,40.10
2022-09-09T12:29:58.413Z,40.30
2022-09-09T12:34:15.214Z,40.20
2022-09-09T12:38:36.978Z,40.60
2022-09-09T12:42:41.863Z,37.00
2022-09-09T12:46:47.731Z,36.70
2022-09-09T12:50:51.889Z,37.90
2022-09-09T12:54:54.863Z,38.20
2022-09-09T12:58:59.335Z,34.20
2022-09-09T13:03:15.876Z,34.70
2022-09-09T13:07:20.152Z,34.60
2022-09-09T13:11:44.950Z,35.40
2022-09-09T13:15:59.725Z,36.20
2022-09-09T13:20:03.609Z,35.90
2022-09-09T13:24:21.439Z,34.80
2022-09-09T13:28:27.516Z,33.90
2022-09-09T13:32:36.630Z,34.00
2022-09-09T13:36:40.891Z,34.20
2022-09-09T13:40:56.146Z,33.10
2022-09-09T13:45:05.621Z,33.50
2022-09-09T13:49:11.527Z,33.50
2022-09-09T13:53:14.321Z,32.80
2022-09-09T13:57:24.017Z,31.80
2022-09-09T14:01:29.561Z,32.90
2022-09-09T14:05:34.887Z,32.70
2022-09-09T14:09:37.610Z,34.00
2022-09-09T14:13:40.530Z,32.20
2022-09-09T14:17:44.222Z,31.90
2022-09-09T14:21:46.948Z,32.60
2022-09-09T14:25:50.151Z,32.80
2022-09-09T14:29:53.137Z,32.50
2022-09-09T14:33:57.771Z,32.20
2022-09-09T14:38:02.122Z,31.70
2022-09-09T14:42:05.406Z,31.60
2022-09-09T14:46:16.644Z,32.10
2022-09-09T14:50:21.807Z,32.40
2022-09-09T14:54:24.753Z,32.60
2022-09-09T14:58:32.506Z,33.10
2022-09-09T15:02:35.574Z,33.70
2022-09-09T15:06:40.179Z,34.20
2022-09-09T15:10:43.590Z,34.40
2022-09-09T15:14:46.744Z,34.20
2022-09-09T15:18:54.083Z,33.40
2022-09-09T15:22:57.396Z,33.20
2022-09-09T15:27:00.852Z,34.30
2022-09-09T15:31:08.277Z,34.70
2022-09-09T15:35:11.290Z,34.20
2022-09-09T15:39:16.905Z,34.90
2022-09-09T15:43:19.626Z,35.70
2022-09-09T15:47:22.742Z,36.40
2022-09-09T15:51:43.533Z,36.20
2022-09-09T15:55:47.018Z,36.20
2022-09-09T15:59:49.876Z,35.90
2022-09-09T16:03:52.783Z,35.70
2022-09-09T16:07:55.504Z,35.60
2022-09-09T16:12:00.057Z,35.40
2022-09-09T16:16:04.280Z,35.20
2022-09-09T16:20:09.475Z,35.50
2022-09-09T16:24:19.101Z,36.30
2022-09-09T16:28:22.448Z,36.70
2022-09-09T16:32:25.309Z,37.00
2022-09-09T16:36:31.806Z,37.50
2022-09-09T16:40:38.396Z,38.30
2022-09-09T16:44:42.288Z,38.00
2022-09-09T16:48:47.204Z,37.70
2022-09-09T16:52:49.922Z,37.90
2022-09-09T16:56:52.839Z,37.60
2022-09-09T17:00:59.830Z,37.10
2022-09-09T17:05:02.680Z,37.30
2022-09-09T17:09:09.236Z,37.80
2022-09-09T17:13:13.421Z,38.40
2022-09-09T17:17:31.303Z,38.60
2022-09-09T17:21:35.290Z,39.20
2022-09-09T17:25:39.207Z,40.60
2022-09-09T17:29:42.050Z,41.20
2022-09-09T17:33:48.971Z,42.30
2022-09-09T17:37:53.356Z,42.50
2022-09-09T17:41:56.273Z,43.30
2022-09-09T17:46:17.722Z,44.00
2022-09-09T17:50:20.629Z,44.20
2022-09-09T17:54:23.944Z,45.90
2022-09-09T17:58:27.279Z,46.40
2022-09-09T18:02:30.253Z,47.10
2022-09-09T18:06:37.092Z,48.20
2022-09-09T18:10:40.579Z,48.70
2022-09-09T18:14:43.382Z,49.50
2022-09-09T18:18:47.022Z,50.00
2022-09-09T18:22:49.873Z,50.60
2022-09-09T18:26:53.460Z,51.40
2022-09-09T18:30:56.365Z,51.20
2022-09-09T18:34:59.285Z,51.70
2022-09-09T18:39:05.070Z,52.10
2022-09-09T18:43:08.585Z,52.50
2022-09-09T18:47:11.291Z,52.80
2022-09-09T18:51:16.561Z,53.10
2022-09-09T18:55:19.316Z,53.70
2022-09-09T18:59:23.983Z,53.90
2022-09-09T19:03:28.516Z,54.30
2022-09-09T19:07:31.394Z,54.50
2022-09-09T19:11:34.676Z,55.00
2022-09-09T19:15:37.716Z,54.90
2022-09-09T19:19:42.565Z,55.50
2022-09-09T19:23:54.681Z,55.50
2022-09-09T19:27:58.449Z,55.90
2022-09-09T19:32:42.746Z,56.20
2022-09-09T19:36:29.645Z,56.70
2022-09-09T19:40:35.515Z,56.80
2022-09-09T19:44:38.253Z,57.30
2022-09-09T19:48:42.380Z,57.90
2022-09-09T19:52:45.471Z,58.50
2022-09-09T19:56:48.523Z,58.60
2022-09-09T20:00:51.763Z,58.50
2022-09-09T20:04:59.380Z,59.10
2022-09-09T20:09:03.760Z,59.80
2022-09-09T20:13:07.339Z,60.00
2022-09-09T20:17:10.399Z,60.30
2022-09-09T20:21:20.905Z,60.10
2022-09-09T20:25:24.595Z,60.10
2022-09-09T20:29:27.411Z,60.10
2022-09-09T20:33:31.252Z,60.20
2022-09-09T20:37:34.028Z,60.00
2022-09-09T20:41:39.185Z,60.00
2022-09-09T20:45:43.862Z,59.80
2022-09-09T20:49:46.606Z,59.60
2022-09-09T20:53:59.334Z,59.70
2022-09-09T20:58:02.160Z,59.40
2022-09-09T21:02:05.715Z,59.50
2022-09-09T21:06:08.838Z,58.90
2022-09-09T21:10:11.852Z,58.70
2022-09-09T21:14:15.018Z,58.90
2022-09-09T21:18:19.140Z,58.60
2022-09-09T21:22:22.142Z,58.00
2022-09-09T21:26:25.549Z,58.50
2022-09-09T21:30:38.164Z,59.10
2022-09-09T21:34:43.780Z,60.00
2022-09-09T21:38:46.820Z,59.40
2022-09-09T21:42:49.894Z,59.30
2022-09-09T21:46:53.249Z,59.50
2022-09-09T21:50:56.019Z,59.70
2022-09-09T21:54:58.727Z,59.80
2022-09-09T21:59:04.244Z,60.00
2022-09-09T22:03:08.611Z,59.50
2022-09-09T22:07:11.604Z,59.70
2022-09-09T22:11:22.666Z,59.90
2022-09-09T22:15:25.597Z,59.60
2022-09-09T22:19:28.558Z,59.90
2022-09-09T22:23:31.586Z,60.50
2022-09-09T22:27:34.586Z,60.10
2022-09-09T22:31:37.391Z,60.50
2022-09-09T22:35:44.948Z,60.90
2022-09-09T22:39:48.145Z,60.70
